sensor_id;sensor_type;location;lat;lon;timestamp;pressure;altitude;pressure_sealevel;temperature;humidity
64827;BME280;51265;53.972;12.286;2023-03-18T00:00:20;99936.94;;;7.72;84.33
64827;BME280;51265;53.972;12.286;2023-03-18T00:02:47;99938.06;;;7.71;84.89
64827;BME280;51265;53.972;12.286;2023-03-18T00:05:14;99948.94;;;7.76;84.89
64827;BME280;51265;53.972;12.286;2023-03-18T00:07:40;99943.44;;;7.76;85.17
64827;BME280;51265;53.972;12.286;2023-03-18T00:10:09;99939.31;;;7.79;84.67
64827;BME280;51265;53.972;12.286;2023-03-18T00:12:37;99933.03;;;7.78;84.77
64827;BME280;51265;53.972;12.286;2023-03-18T00:15:08;99950.19;;;7.84;84.71
64827;BME280;51265;53.972;12.286;2023-03-18T00:17:35;99952.72;;;7.80;84.85
64827;BME280;51265;53.972;12.286;2023-03-18T00:20:04;99961.97;;;7.84;85.43
64827;BME280;51265;53.972;12.286;2023-03-18T00:22:36;99968.03;;;7.81;86.08
64827;BME280;51265;53.972;12.286;2023-03-18T00:25:04;99979.09;;;7.76;87.15
64827;BME280;51265;53.972;12.286;2023-03-18T00:27:32;99984.28;;;7.78;88.10
64827;BME280;51265;53.972;12.286;2023-03-18T00:29:59;99986.28;;;7.72;88.62
64827;BME280;51265;53.972;12.286;2023-03-18T00:32:27;99995.06;;;7.69;89.28
64827;BME280;51265;53.972;12.286;2023-03-18T00:34:55;99994.03;;;7.65;89.42
64827;BME280;51265;53.972;12.286;2023-03-18T00:37:23;99997.38;;;7.62;89.50
64827;BME280;51265;53.972;12.286;2023-03-18T00:39:59;99987.59;;;7.56;89.91
64827;BME280;51265;53.972;12.286;2023-03-18T00:42:37;99992.63;;;7.48;90.15
64827;BME280;51265;53.972;12.286;2023-03-18T00:45:07;99995.06;;;7.50;90.43
64827;BME280;51265;53.972;12.286;2023-03-18T00:47:33;100004.03;;;7.56;90.90
64827;BME280;51265;53.972;12.286;2023-03-18T00:50:00;99995.06;;;7.50;91.11
64827;BME280;51265;53.972;12.286;2023-03-18T00:52:28;99998.69;;;7.45;91.61
64827;BME280;51265;53.972;12.286;2023-03-18T00:54:54;100003.13;;;7.41;91.76
64827;BME280;51265;53.972;12.286;2023-03-18T00:57:20;100005.56;;;7.43;92.25
64827;BME280;51265;53.972;12.286;2023-03-18T00:59:47;100008.59;;;7.41;92.48
64827;BME280;51265;53.972;12.286;2023-03-18T01:02:13;100006.97;;;7.40;92.64
64827;BME280;51265;53.972;12.286;2023-03-18T01:04:42;100009.19;;;7.38;93.32
64827;BME280;51265;53.972;12.286;2023-03-18T01:07:09;100006.97;;;7.40;93.53
64827;BME280;51265;53.972;12.286;2023-03-18T01:09:37;100005.31;;;7.39;93.87
64827;BME280;51265;53.972;12.286;2023-03-18T01:12:09;99996.59;;;7.37;94.11
64827;BME280;51265;53.972;12.286;2023-03-18T01:14:38;99999.41;;;7.32;94.83
64827;BME280;51265;53.972;12.286;2023-03-18T01:17:05;99992.06;;;7.28;95.37
64827;BME280;51265;53.972;12.286;2023-03-18T01:19:32;99995.06;;;7.26;95.25
64827;BME280;51265;53.972;12.286;2023-03-18T01:22:00;99986.34;;;7.24;95.53
64827;BME280;51265;53.972;12.286;2023-03-18T01:24:27;99993.75;;;7.23;95.97
64827;BME280;51265;53.972;12.286;2023-03-18T01:26:54;99993.53;;;7.20;96.20
64827;BME280;51265;53.972;12.286;2023-03-18T01:29:22;100010.81;;;7.39;96.73
64827;BME280;51265;53.972;12.286;2023-03-18T01:31:49;100004.25;;;7.40;96.47
64827;BME280;51265;53.972;12.286;2023-03-18T01:34:16;100003.13;;;7.41;96.81
64827;BME280;51265;53.972;12.286;2023-03-18T01:36:48;99990.31;;;7.37;96.50
64827;BME280;51265;53.972;12.286;2023-03-18T01:39:15;99986.22;;;7.34;96.80
64827;BME280;51265;53.972;12.286;2023-03-18T01:41:43;99992.88;;;7.28;97.35
64827;BME280;51265;53.972;12.286;2023-03-18T01:44:16;100005.38;;;7.34;97.61
64827;BME280;51265;53.972;12.286;2023-03-18T01:46:46;100007.47;;;7.42;97.73
64827;BME280;51265;53.972;12.286;2023-03-18T01:49:18;100007.56;;;7.37;97.80
64827;BME280;51265;53.972;12.286;2023-03-18T01:51:50;100015.59;;;7.29;98.13
64827;BME280;51265;53.972;12.286;2023-03-18T01:54:18;100027.78;;;7.17;99.12
64827;BME280;51265;53.972;12.286;2023-03-18T01:56:46;100031.94;;;7.10;100.00
64827;BME280;51265;53.972;12.286;2023-03-18T01:59:14;100048.75;;;7.03;100.00
64827;BME280;51265;53.972;12.286;2023-03-18T02:01:46;100051.50;;;6.98;100.00
64827;BME280;51265;53.972;12.286;2023-03-18T02:04:14;100046.91;;;6.93;100.00
64827;BME280;51265;53.972;12.286;2023-03-18T02:06:42;100065.56;;;6.91;100.00
64827;BME280;51265;53.972;12.286;2023-03-18T02:09:10;100074.63;;;6.87;100.00
64827;BME280;51265;53.972;12.286;2023-03-18T02:11:40;100065.56;;;6.91;100.00
64827;BME280;51265;53.972;12.286;2023-03-18T02:14:10;100064.97;;;6.94;100.00
64827;BME280;51265;53.972;12.286;2023-03-18T02:16:45;100056.22;;;6.92;100.00
64827;BME280;51265;53.972;12.286;2023-03-18T02:19:28;100052.38;;;6.93;100.00
64827;BME280;51265;53.972;12.286;2023-03-18T02:22:27;100055.66;;;6.95;100.00
64827;BME280;51265;53.972;12.286;2023-03-18T02:27:47;100062.19;;;6.99;100.00
64827;BME280;51265;53.972;12.286;2023-03-18T02:30:30;100061.38;;;6.99;100.00
64827;BME280;51265;53.972;12.286;2023-03-18T02:33:00;100063.00;;;7.00;100.00
64827;BME280;51265;53.972;12.286;2023-03-18T02:35:27;100064.88;;;7.05;100.00
64827;BME280;51265;53.972;12.286;2023-03-18T02:37:57;100062.69;;;7.07;100.00
64827;BME280;51265;53.972;12.286;2023-03-18T02:40:33;100066.22;;;7.07;100.00
64827;BME280;51265;53.972;12.286;2023-03-18T02:43:25;100070.03;;;7.11;100.00
64827;BME280;51265;53.972;12.286;2023-03-18T02:48:37;100081.22;;;7.15;100.00
64827;BME280;51265;53.972;12.286;2023-03-18T02:51:05;100071.88;;;7.16;100.00
64827;BME280;51265;53.972;12.286;2023-03-18T02:53:32;100068.59;;;7.14;100.00
64827;BME280;51265;53.972;12.286;2023-03-18T02:55:59;100064.19;;;7.18;100.00
64827;BME280;51265;53.972;12.286;2023-03-18T02:58:26;100049.75;;;7.12;100.00
64827;BME280;51265;53.972;12.286;2023-03-18T03:00:56;100051.72;;;7.07;100.00
64827;BME280;51265;53.972;12.286;2023-03-18T03:03:23;100047.88;;;7.08;100.00
64827;BME280;51265;53.972;12.286;2023-03-18T03:05:49;100030.97;;;7.01;100.00
64827;BME280;51265;53.972;12.286;2023-03-18T03:08:16;100026.66;;;6.94;100.00
64827;BME280;51265;53.972;12.286;2023-03-18T03:10:45;100027.41;;;7.00;100.00
64827;BME280;51265;53.972;12.286;2023-03-18T03:21:25;100026.84;;;6.74;100.00
64827;BME280;51265;53.972;12.286;2023-03-18T03:23:51;100039.53;;;6.65;100.00
64827;BME280;51265;53.972;12.286;2023-03-18T03:26:18;100053.22;;;6.60;100.00
64827;BME280;51265;53.972;12.286;2023-03-18T03:28:44;100051.66;;;6.54;100.00
64827;BME280;51265;53.972;12.286;2023-03-18T03:31:13;100054.94;;;6.51;100.00
64827;BME280;51265;53.972;12.286;2023-03-18T03:33:40;100059.91;;;6.48;100.00
64827;BME280;51265;53.972;12.286;2023-03-18T03:36:09;100062.91;;;6.47;100.00
64827;BME280;51265;53.972;12.286;2023-03-18T03:38:35;100078.78;;;6.45;100.00
64827;BME280;51265;53.972;12.286;2023-03-18T03:41:01;100078.50;;;6.46;100.00
64827;BME280;51265;53.972;12.286;2023-03-18T03:43:28;100081.81;;;6.43;100.00
64827;BME280;51265;53.972;12.286;2023-03-18T03:45:54;100076.31;;;6.43;100.00
64827;BME280;51265;53.972;12.286;2023-03-18T03:48:21;100082.63;;;6.44;100.00
64827;BME280;51265;53.972;12.286;2023-03-18T03:50:49;100088.63;;;6.46;100.00
64827;BME280;51265;53.972;12.286;2023-03-18T03:53:31;100082.31;;;6.51;100.00
64827;BME280;51265;53.972;12.286;2023-03-18T03:55:58;100080.94;;;6.53;100.00
64827;BME280;51265;53.972;12.286;2023-03-18T03:58:25;100065.31;;;6.54;100.00
64827;BME280;51265;53.972;12.286;2023-03-18T04:00:57;100064.25;;;6.49;100.00
64827;BME280;51265;53.972;12.286;2023-03-18T04:03:23;100063.44;;;6.49;100.00
64827;BME280;51265;53.972;12.286;2023-03-18T04:05:51;100064.00;;;6.46;100.00
64827;BME280;51265;53.972;12.286;2023-03-18T04:08:21;100068.09;;;6.48;100.00
64827;BME280;51265;53.972;12.286;2023-03-18T04:10:48;100071.91;;;6.47;100.00
64827;BME280;51265;53.972;12.286;2023-03-18T04:13:14;100071.69;;;6.44;100.00
64827;BME280;51265;53.972;12.286;2023-03-18T04:15:41;100067.59;;;6.41;100.00
64827;BME280;51265;53.972;12.286;2023-03-18T04:18:11;100071.44;;;6.40;100.00
64827;BME280;51265;53.972;12.286;2023-03-18T04:20:40;100070.63;;;6.40;100.00
64827;BME280;51265;53.972;12.286;2023-03-18T04:23:15;100075.25;;;6.39;100.00
64827;BME280;51265;53.972;12.286;2023-03-18T04:25:41;100083.16;;;6.46;100.00
64827;BME280;51265;53.972;12.286;2023-03-18T04:28:08;100077.41;;;6.47;100.00
64827;BME280;51265;53.972;12.286;2023-03-18T04:30:36;100071.91;;;6.47;100.00
64827;BME280;51265;53.972;12.286;2023-03-18T04:33:07;100065.31;;;6.54;100.00
64827;BME280;51265;53.972;12.286;2023-03-18T04:35:35;100061.97;;;6.62;100.00
64827;BME280;51265;53.972;12.286;2023-03-18T04:38:01;100060.81;;;6.68;100.00
64827;BME280;51265;53.972;12.286;2023-03-18T04:40:28;100049.31;;;6.71;100.00
64827;BME280;51265;53.972;12.286;2023-03-18T04:42:55;100043.28;;;6.74;100.00
64827;BME280;51265;53.972;12.286;2023-03-18T04:45:24;100033.44;;;6.73;100.00
64827;BME280;51265;53.972;12.286;2023-03-18T04:47:53;100023.56;;;6.72;100.00
64827;BME280;51265;53.972;12.286;2023-03-18T04:50:20;100026.59;;;6.70;100.00
64827;BME280;51265;53.972;12.286;2023-03-18T04:52:47;100023.31;;;6.68;100.00
64827;BME280;51265;53.972;12.286;2023-03-18T04:55:20;100043.84;;;6.71;100.00
64827;BME280;51265;53.972;12.286;2023-03-18T04:57:47;100045.25;;;6.63;100.00
64827;BME280;51265;53.972;12.286;2023-03-18T05:00:18;100043.94;;;6.61;100.00
64827;BME280;51265;53.972;12.286;2023-03-18T05:02:49;100060.81;;;6.68;100.00
64827;BME280;51265;53.972;12.286;2023-03-18T05:05:16;100065.72;;;6.71;100.00
64827;BME280;51265;53.972;12.286;2023-03-18T05:07:47;100071.75;;;6.68;100.00
64827;BME280;51265;53.972;12.286;2023-03-18T05:10:15;100074.56;;;6.63;100.00
64827;BME280;51265;53.972;12.286;2023-03-18T05:12:41;100076.19;;;6.64;100.00
64827;BME280;51265;53.972;12.286;2023-03-18T05:15:10;100075.06;;;6.70;100.00
64827;BME280;51265;53.972;12.286;2023-03-18T05:17:41;100075.63;;;6.67;100.00
64827;BME280;51265;53.972;12.286;2023-03-18T05:20:08;100073.41;;;6.69;100.00
64827;BME280;51265;53.972;12.286;2023-03-18T05:22:35;100070.63;;;6.74;100.00
64827;BME280;51265;53.972;12.286;2023-03-18T05:25:23;100061.00;;;6.82;100.00
64827;BME280;51265;53.972;12.286;2023-03-18T05:27:50;100060.69;;;6.83;100.00
64827;BME280;51265;53.972;12.286;2023-03-18T05:30:26;100059.00;;;6.87;100.00
64827;BME280;51265;53.972;12.286;2023-03-18T05:32:53;100051.38;;;6.84;100.00
64827;BME280;51265;53.972;12.286;2023-03-18T05:35:26;100059.22;;;6.96;100.00
64827;BME280;51265;53.972;12.286;2023-03-18T05:37:53;100056.16;;;7.03;100.00
64827;BME280;51265;53.972;12.286;2023-03-18T05:40:20;100049.00;;;7.02;100.00
64827;BME280;51265;53.972;12.286;2023-03-18T05:43:00;100039.66;;;7.08;100.00
64827;BME280;51265;53.972;12.286;2023-03-18T05:45:38;100032.50;;;7.12;100.00
64827;BME280;51265;53.972;12.286;2023-03-18T05:48:06;100039.47;;;7.23;100.00
64827;BME280;51265;53.972;12.286;2023-03-18T05:50:41;100032.31;;;7.27;100.00
64827;BME280;51265;53.972;12.286;2023-03-18T05:53:11;100030.63;;;7.31;100.00
64827;BME280;51265;53.972;12.286;2023-03-18T05:55:42;100034.94;;;7.37;100.00
64827;BME280;51265;53.972;12.286;2023-03-18T05:58:08;100039.94;;;7.30;100.00
64827;BME280;51265;53.972;12.286;2023-03-18T06:00:37;100043.91;;;7.19;100.00
64827;BME280;51265;53.972;12.286;2023-03-18T06:03:03;100059.75;;;7.22;100.00
64827;BME280;51265;53.972;12.286;2023-03-18T06:05:30;100065.25;;;7.22;100.00
64827;BME280;51265;53.972;12.286;2023-03-18T06:07:56;100083.31;;;7.23;100.00
64827;BME280;51265;53.972;12.286;2023-03-18T06:10:24;100084.97;;;7.24;100.00
64827;BME280;51265;53.972;12.286;2023-03-18T06:12:51;100080.53;;;7.28;100.00
64827;BME280;51265;53.972;12.286;2023-03-18T06:15:17;100086.00;;;7.28;100.00
64827;BME280;51265;53.972;12.286;2023-03-18T06:17:44;100087.63;;;7.29;100.00
64827;BME280;51265;53.972;12.286;2023-03-18T06:20:14;100079.34;;;7.34;100.00
64827;BME280;51265;53.972;12.286;2023-03-18T06:22:41;100095.78;;;7.34;100.00
64827;BME280;51265;53.972;12.286;2023-03-18T06:25:08;100096.84;;;7.38;100.00
64827;BME280;51265;53.972;12.286;2023-03-18T06:27:37;100102.31;;;7.38;100.00
64827;BME280;51265;53.972;12.286;2023-03-18T06:30:05;100109.41;;;7.44;100.00
64827;BME280;51265;53.972;12.286;2023-03-18T06:32:34;100116.78;;;7.44;100.00
64827;BME280;51265;53.972;12.286;2023-03-18T06:35:00;100128.22;;;7.51;100.00
64827;BME280;51265;53.972;12.286;2023-03-18T06:37:27;100129.03;;;7.52;100.00
64827;BME280;51265;53.972;12.286;2023-03-18T06:39:54;100125.41;;;7.56;100.00
64827;BME280;51265;53.972;12.286;2023-03-18T06:42:20;100122.97;;;7.55;100.00
64827;BME280;51265;53.972;12.286;2023-03-18T06:44:56;100122.41;;;7.58;100.00
64827;BME280;51265;53.972;12.286;2023-03-18T06:47:30;100125.09;;;7.63;100.00
64827;BME280;51265;53.972;12.286;2023-03-18T06:49:57;100124.50;;;7.66;100.00
64827;BME280;51265;53.972;12.286;2023-03-18T06:52:29;100127.75;;;7.68;100.00
64827;BME280;51265;53.972;12.286;2023-03-18T06:55:02;100128.56;;;7.68;100.00
64827;BME280;51265;53.972;12.286;2023-03-18T06:57:28;100138.97;;;7.71;100.00
64827;BME280;51265;53.972;12.286;2023-03-18T06:59:54;100151.09;;;7.89;100.00
64827;BME280;51265;53.972;12.286;2023-03-18T07:02:21;100146.59;;;7.98;100.00
64827;BME280;51265;53.972;12.286;2023-03-18T07:04:52;100144.31;;;8.06;100.00
64827;BME280;51265;53.972;12.286;2023-03-18T07:07:18;100143.38;;;8.15;100.00
64827;BME280;51265;53.972;12.286;2023-03-18T07:09:44;100141.84;;;8.28;100.00
64827;BME280;51265;53.972;12.286;2023-03-18T07:12:11;100139.53;;;8.35;100.00
64827;BME280;51265;53.972;12.286;2023-03-18T07:14:42;100131.19;;;8.45;100.00
64827;BME280;51265;53.972;12.286;2023-03-18T07:17:08;100137.56;;;8.60;100.00
64827;BME280;51265;53.972;12.286;2023-03-18T07:19:35;100135.75;;;8.69;100.00
64827;BME280;51265;53.972;12.286;2023-03-18T07:22:02;100116.50;;;8.74;100.00
64827;BME280;51265;53.972;12.286;2023-03-18T07:24:31;100115.38;;;8.75;100.00
64827;BME280;51265;53.972;12.286;2023-03-18T07:26:57;100123.75;;;8.84;100.00
64827;BME280;51265;53.972;12.286;2023-03-18T07:29:24;100134.84;;;8.92;100.00
64827;BME280;51265;53.972;12.286;2023-03-18T07:31:50;100139.75;;;8.95;100.00
64827;BME280;51265;53.972;12.286;2023-03-18T07:34:17;100158.22;;;9.09;100.00
64827;BME280;51265;53.972;12.286;2023-03-18T07:36:44;100158.47;;;9.26;100.00
64827;BME280;51265;53.972;12.286;2023-03-18T07:39:10;100166.53;;;9.36;100.00
64827;BME280;51265;53.972;12.286;2023-03-18T07:41:36;100162.78;;;9.46;100.00
64827;BME280;51265;53.972;12.286;2023-03-18T07:44:03;100159.63;;;9.53;100.00
64827;BME280;51265;53.972;12.286;2023-03-18T07:46:29;100154.44;;;9.51;100.00
64827;BME280;51265;53.972;12.286;2023-03-18T07:48:55;100136.22;;;9.41;100.00
64827;BME280;51265;53.972;12.286;2023-03-18T07:51:21;100155.25;;;9.52;100.00
64827;BME280;51265;53.972;12.286;2023-03-18T07:53:47;100162.91;;;9.55;100.00
64827;BME280;51265;53.972;12.286;2023-03-18T07:56:16;100159.03;;;9.56;100.00
64827;BME280;51265;53.972;12.286;2023-03-18T07:58:42;100151.38;;;9.53;100.00
64827;BME280;51265;53.972;12.286;2023-03-18T08:01:08;100153.94;;;9.49;100.00
64827;BME280;51265;53.972;12.286;2023-03-18T08:03:34;100149.25;;;9.50;100.00
64827;BME280;51265;53.972;12.286;2023-03-18T08:06:01;100161.69;;;9.61;100.00
64827;BME280;51265;53.972;12.286;2023-03-18T08:08:27;100166.78;;;9.67;100.00
64827;BME280;51265;53.972;12.286;2023-03-18T08:10:57;100170.34;;;9.82;100.00
64827;BME280;51265;53.972;12.286;2023-03-18T08:13:25;100170.88;;;9.97;100.00
64827;BME280;51265;53.972;12.286;2023-03-18T08:15:52;100183.31;;;10.09;100.00
64827;BME280;51265;53.972;12.286;2023-03-18T08:18:18;100177.47;;;10.24;100.00
64827;BME280;51265;53.972;12.286;2023-03-18T08:20:44;100177.81;;;10.36;100.00
64827;BME280;51265;53.972;12.286;2023-03-18T08:23:10;100172.81;;;10.38;100.00
64827;BME280;51265;53.972;12.286;2023-03-18T08:25:37;100170.47;;;10.45;100.00
64827;BME280;51265;53.972;12.286;2023-03-18T08:28:04;100163.31;;;10.44;100.00
64827;BME280;51265;53.972;12.286;2023-03-18T08:30:37;100143.97;;;10.36;100.00
64827;BME280;51265;53.972;12.286;2023-03-18T08:33:04;100148.66;;;10.35;100.00
64827;BME280;51265;53.972;12.286;2023-03-18T08:35:30;100143.97;;;10.36;100.00
64827;BME280;51265;53.972;12.286;2023-03-18T08:37:56;100161.94;;;10.33;100.00
64827;BME280;51265;53.972;12.286;2023-03-18T08:40:22;100159.06;;;10.38;100.00
64827;BME280;51265;53.972;12.286;2023-03-18T08:42:49;100159.34;;;10.51;100.00
64827;BME280;51265;53.972;12.286;2023-03-18T08:45:15;100176.69;;;10.73;100.00
64827;BME280;51265;53.972;12.286;2023-03-18T08:47:41;100182.19;;;10.87;100.00
64827;BME280;51265;53.972;12.286;2023-03-18T08:50:08;100175.63;;;10.97;100.00
64827;BME280;51265;53.972;12.286;2023-03-18T08:52:35;100169.69;;;11.04;100.00
64827;BME280;51265;53.972;12.286;2023-03-18T08:55:04;100156.31;;;10.97;100.00
64827;BME280;51265;53.972;12.286;2023-03-18T08:57:32;100150.88;;;11.06;100.00
64827;BME280;51265;53.972;12.286;2023-03-18T08:59:59;100170.66;;;11.30;100.00
64827;BME280;51265;53.972;12.286;2023-03-18T09:02:25;100178.94;;;11.61;100.00
64827;BME280;51265;53.972;12.286;2023-03-18T09:04:53;100164.66;;;11.90;100.00
64827;BME280;51265;53.972;12.286;2023-03-18T09:07:20;100147.38;;;12.16;100.00
64827;BME280;51265;53.972;12.286;2023-03-18T09:09:46;100134.28;;;12.48;98.42
64827;BME280;51265;53.972;12.286;2023-03-18T09:12:12;100146.81;;;12.80;97.83
64827;BME280;51265;53.972;12.286;2023-03-18T09:14:40;100144.84;;;12.98;97.81
64827;BME280;51265;53.972;12.286;2023-03-18T09:17:07;100153.75;;;13.20;97.00
64827;BME280;51265;53.972;12.286;2023-03-18T09:19:34;100144.34;;;13.30;96.30
64827;BME280;51265;53.972;12.286;2023-03-18T09:22:01;100147.25;;;13.42;95.66
64827;BME280;51265;53.972;12.286;2023-03-18T09:24:28;100154.03;;;13.54;96.67
64827;BME280;51265;53.972;12.286;2023-03-18T09:26:54;100157.44;;;13.68;95.61
64827;BME280;51265;53.972;12.286;2023-03-18T09:29:20;100137.59;;;13.57;95.16
64827;BME280;51265;53.972;12.286;2023-03-18T09:31:46;100132.22;;;13.61;94.16
64827;BME280;51265;53.972;12.286;2023-03-18T09:34:13;100113.44;;;13.28;94.88
64827;BME280;51265;53.972;12.286;2023-03-18T09:36:39;100144.53;;;13.34;96.63
64827;BME280;51265;53.972;12.286;2023-03-18T09:39:06;100181.41;;;13.55;98.69
64827;BME280;51265;53.972;12.286;2023-03-18T09:44:29;100188.06;;;13.45;99.55
64827;BME280;51265;53.972;12.286;2023-03-18T09:49:41;100201.75;;;13.51;100.00
64827;BME280;51265;53.972;12.286;2023-03-18T09:52:15;100186.91;;;13.64;99.26
64827;BME280;51265;53.972;12.286;2023-03-18T09:54:48;100200.50;;;13.86;99.94
64827;BME280;51265;53.972;12.286;2023-03-18T09:57:23;100226.31;;;14.08;100.00
64827;BME280;51265;53.972;12.286;2023-03-18T10:03:13;100174.91;;;14.57;96.55
64827;BME280;51265;53.972;12.286;2023-03-18T10:08:36;100152.50;;;14.41;96.00
64827;BME280;51265;53.972;12.286;2023-03-18T10:11:10;100123.78;;;14.46;93.78
64827;BME280;51265;53.972;12.286;2023-03-18T10:13:43;100128.06;;;14.43;93.57
64827;BME280;51265;53.972;12.286;2023-03-18T10:16:21;100175.00;;;14.69;96.25
64827;BME280;51265;53.972;12.286;2023-03-18T10:18:48;100184.13;;;14.91;96.91
64827;BME280;51265;53.972;12.286;2023-03-18T10:26:39;100144.69;;;15.39;92.91
64827;BME280;51265;53.972;12.286;2023-03-18T10:29:43;100152.59;;;15.62;92.94
64827;BME280;51265;53.972;12.286;2023-03-18T10:32:26;100138.41;;;15.88;91.24
64827;BME280;51265;53.972;12.286;2023-03-18T10:35:01;100118.19;;;16.00;89.52
64827;BME280;51265;53.972;12.286;2023-03-18T10:37:45;100095.50;;;16.10;87.97
64827;BME280;51265;53.972;12.286;2023-03-18T10:40:16;100072.69;;;16.16;87.05
64827;BME280;51265;53.972;12.286;2023-03-18T10:42:43;100070.03;;;15.83;87.83
64827;BME280;51265;53.972;12.286;2023-03-18T10:45:28;100086.50;;;15.76;89.21
64827;BME280;51265;53.972;12.286;2023-03-18T10:48:11;100132.19;;;16.15;90.18
64827;BME280;51265;53.972;12.286;2023-03-18T10:53:33;100077.03;;;16.82;85.81
64827;BME280;51265;53.972;12.286;2023-03-18T10:56:09;100003.00;;;16.50;83.00
64827;BME280;51265;53.972;12.286;2023-03-18T10:58:38;99985.34;;;16.02;83.13
64827;BME280;51265;53.972;12.286;2023-03-18T11:01:13;100001.41;;;15.96;83.76
64827;BME280;51265;53.972;12.286;2023-03-18T11:03:51;100004.22;;;15.72;84.11
64827;BME280;51265;53.972;12.286;2023-03-18T11:06:27;100017.28;;;15.71;84.59
64827;BME280;51265;53.972;12.286;2023-03-18T11:09:01;100008.03;;;15.30;85.55
64827;BME280;51265;53.972;12.286;2023-03-18T11:11:32;100042.38;;;15.62;86.14
64827;BME280;51265;53.972;12.286;2023-03-18T11:14:03;100057.88;;;15.51;87.02
64827;BME280;51265;53.972;12.286;2023-03-18T11:19:26;100064.84;;;15.69;87.30
64827;BME280;51265;53.972;12.286;2023-03-18T11:24:37;100069.56;;;16.18;86.45
64827;BME280;51265;53.972;12.286;2023-03-18T11:27:23;100069.22;;;16.60;84.85
64827;BME280;51265;53.972;12.286;2023-03-18T11:29:58;100057.84;;;16.65;84.64
64827;BME280;51265;53.972;12.286;2023-03-18T11:32:28;100030.63;;;17.30;81.08
64827;BME280;51265;53.972;12.286;2023-03-18T11:35:00;100033.66;;;17.88;79.35
64827;BME280;51265;53.972;12.286;2023-03-18T11:37:33;99972.00;;;18.06;76.99
64827;BME280;51265;53.972;12.286;2023-03-18T11:42:42;99972.25;;;18.59;76.18
64827;BME280;51265;53.972;12.286;2023-03-18T11:45:48;99886.16;;;17.76;75.50
64827;BME280;51265;53.972;12.286;2023-03-18T11:48:31;99872.91;;;16.39;78.93
64827;BME280;51265;53.972;12.286;2023-03-18T11:56:41;99963.59;;;16.60;81.05
64827;BME280;51265;53.972;12.286;2023-03-18T11:59:18;99935.97;;;16.67;79.56
64827;BME280;51265;53.972;12.286;2023-03-18T12:02:19;99924.56;;;16.00;81.34
64827;BME280;51265;53.972;12.286;2023-03-18T12:04:51;99978.53;;;16.27;81.96
64827;BME280;51265;53.972;12.286;2023-03-18T12:07:31;99963.28;;;16.21;81.50
64827;BME280;51265;53.972;12.286;2023-03-18T12:10:16;100010.03;;;16.31;82.81
64827;BME280;51265;53.972;12.286;2023-03-18T12:15:52;100044.84;;;15.88;85.25
64827;BME280;51265;53.972;12.286;2023-03-18T12:18:36;100066.41;;;15.46;87.77
64827;BME280;51265;53.972;12.286;2023-03-18T12:29:57;100102.22;;;15.72;88.29
64827;BME280;51265;53.972;12.286;2023-03-18T12:35:24;100120.38;;;16.18;87.47
64827;BME280;51265;53.972;12.286;2023-03-18T12:41:15;100045.69;;;16.17;83.97
64827;BME280;51265;53.972;12.286;2023-03-18T12:46:35;100071.63;;;16.09;84.64
64827;BME280;51265;53.972;12.286;2023-03-18T12:49:24;100067.75;;;15.85;85.01
64827;BME280;51265;53.972;12.286;2023-03-18T12:52:10;100065.91;;;15.77;85.33
64827;BME280;51265;53.972;12.286;2023-03-18T12:54:44;100063.91;;;15.90;84.76
64827;BME280;51265;53.972;12.286;2023-03-18T12:57:25;100083.72;;;15.88;85.13
64827;BME280;51265;53.972;12.286;2023-03-18T12:59:58;100048.53;;;15.80;84.55
64827;BME280;51265;53.972;12.286;2023-03-18T13:05:27;100123.88;;;16.68;84.34
64827;BME280;51265;53.972;12.286;2023-03-18T13:10:38;100082.16;;;17.24;80.91
64827;BME280;51265;53.972;12.286;2023-03-18T13:13:07;100045.19;;;16.80;81.59
64827;BME280;51265;53.972;12.286;2023-03-18T13:15:47;100047.31;;;17.30;79.73
64827;BME280;51265;53.972;12.286;2023-03-18T13:18:19;99997.56;;;16.81;79.49
64827;BME280;51265;53.972;12.286;2023-03-18T13:20:48;100012.44;;;16.73;80.52
64827;BME280;51265;53.972;12.286;2023-03-18T13:23:34;100013.50;;;16.28;81.86
64827;BME280;51265;53.972;12.286;2023-03-18T13:29:04;100020.53;;;15.73;83.66
64827;BME280;51265;53.972;12.286;2023-03-18T13:38:00;100076.41;;;17.17;81.09
64827;BME280;51265;53.972;12.286;2023-03-18T13:43:18;100029.78;;;17.93;77.12
64827;BME280;51265;53.972;12.286;2023-03-18T13:45:49;99884.34;;;17.49;73.20
64827;BME280;51265;53.972;12.286;2023-03-18T13:48:20;99920.38;;;17.26;74.82
64827;BME280;51265;53.972;12.286;2023-03-18T13:50:50;99895.81;;;17.12;74.53
64827;BME280;51265;53.972;12.286;2023-03-18T13:53:26;99935.75;;;17.35;74.92
64827;BME280;51265;53.972;12.286;2023-03-18T13:58:23;99932.97;;;17.35;74.81
64827;BME280;51265;53.972;12.286;2023-03-18T14:03:51;99905.25;;;17.58;73.24
64827;BME280;51265;53.972;12.286;2023-03-18T14:06:44;99842.25;;;17.34;71.81
64827;BME280;51265;53.972;12.286;2023-03-18T14:09:30;99844.81;;;17.24;72.16
64827;BME280;51265;53.972;12.286;2023-03-18T14:17:57;99905.97;;;16.73;75.29
64827;BME280;51265;53.972;12.286;2023-03-18T14:20:50;99904.72;;;16.86;74.95
64827;BME280;51265;53.972;12.286;2023-03-18T14:23:27;99876.50;;;16.72;74.25
64827;BME280;51265;53.972;12.286;2023-03-18T14:26:23;99890.56;;;16.63;75.02
64827;BME280;51265;53.972;12.286;2023-03-18T14:29:24;99891.31;;;16.60;74.77
64827;BME280;51265;53.972;12.286;2023-03-18T14:31:57;99934.31;;;16.94;75.34
64827;BME280;51265;53.972;12.286;2023-03-18T14:39:24;99906.22;;;16.83;74.87
64827;BME280;51265;53.972;12.286;2023-03-18T14:41:57;99921.47;;;17.21;73.88